sensor_id;sensor_type;location;lat;lon;timestamp;pressure;altitude;pressure_sealevel;temperature;humidity
13869;BME280;7004;48.206;16.402;2022-08-19T00:00:48;98962.16;;;22.69;68.13
13869;BME280;7004;48.206;16.402;2022-08-19T00:03:16;98959.03;;;22.65;69.50
13869;BME280;7004;48.206;16.402;2022-08-19T00:05:42;98966.94;;;22.45;69.98
13869;BME280;7004;48.206;16.402;2022-08-19T00:08:08;98971.69;;;22.65;70.23
13869;BME280;7004;48.206;16.402;2022-08-19T00:10:34;98969.81;;;22.65;70.97
13869;BME280;7004;48.206;16.402;2022-08-19T00:13:00;98972.69;;;22.21;74.40
13869;BME280;7004;48.206;16.402;2022-08-19T00:15:26;98981.22;;;22.10;75.55
13869;BME280;7004;48.206;16.402;2022-08-19T00:17:54;98975.31;;;22.36;75.73
13869;BME280;7004;48.206;16.402;2022-08-19T00:20:22;98973.09;;;22.03;76.88
13869;BME280;7004;48.206;16.402;2022-08-19T00:22:48;98962.63;;;21.93;77.61
13869;BME280;7004;48.206;16.402;2022-08-19T00:25:15;98959.50;;;22.26;76.28
13869;BME280;7004;48.206;16.402;2022-08-19T00:27:43;98959.16;;;22.36;76.34
13869;BME280;7004;48.206;16.402;2022-08-19T00:30:11;98958.75;;;22.17;77.88
13869;BME280;7004;48.206;16.402;2022-08-19T00:32:39;98960.75;;;22.52;76.44
13869;BME280;7004;48.206;16.402;2022-08-19T00:35:06;98958.84;;;22.45;77.07
13869;BME280;7004;48.206;16.402;2022-08-19T00:37:33;98952.19;;;22.41;77.09
13869;BME280;7004;48.206;16.402;2022-08-19T00:40:04;98965.59;;;22.35;77.41
13869;BME280;7004;48.206;16.402;2022-08-19T00:42:30;98963.31;;;22.38;77.67
13869;BME280;7004;48.206;16.402;2022-08-19T00:44:56;98955.84;;;21.97;80.04
13869;BME280;7004;48.206;16.402;2022-08-19T00:47:23;98954.25;;;22.03;80.72
13869;BME280;7004;48.206;16.402;2022-08-19T00:49:56;98954.19;;;21.81;81.34
13869;BME280;7004;48.206;16.402;2022-08-19T00:52:29;98947.69;;;21.76;82.42
13869;BME280;7004;48.206;16.402;2022-08-19T00:54:58;98958.28;;;22.14;80.46
13869;BME280;7004;48.206;16.402;2022-08-19T00:57:33;98955.03;;;22.18;80.16
13869;BME280;7004;48.206;16.402;2022-08-19T01:00:03;98964.31;;;22.16;80.57
13869;BME280;7004;48.206;16.402;2022-08-19T01:02:31;98960.41;;;21.82;82.48
13869;BME280;7004;48.206;16.402;2022-08-19T01:05:03;98953.34;;;22.17;81.13
13869;BME280;7004;48.206;16.402;2022-08-19T01:07:34;98940.09;;;22.16;80.82
13869;BME280;7004;48.206;16.402;2022-08-19T01:10:00;98946.22;;;22.10;81.45
13869;BME280;7004;48.206;16.402;2022-08-19T01:12:27;98945.28;;;22.17;81.03
13869;BME280;7004;48.206;16.402;2022-08-19T01:14:54;98943.13;;;22.28;80.47
13869;BME280;7004;48.206;16.402;2022-08-19T01:17:21;98962.63;;;22.15;80.98
13869;BME280;7004;48.206;16.402;2022-08-19T01:19:47;98953.69;;;22.08;81.56
13869;BME280;7004;48.206;16.402;2022-08-19T01:24:52;98949.38;;;21.77;83.67
13869;BME280;7004;48.206;16.402;2022-08-19T01:27:19;98956.41;;;21.78;83.81
13869;BME280;7004;48.206;16.402;2022-08-19T01:29:45;98963.72;;;21.99;82.44
13869;BME280;7004;48.206;16.402;2022-08-19T01:32:15;98971.34;;;21.95;82.48
13869;BME280;7004;48.206;16.402;2022-08-19T01:34:42;98972.03;;;21.53;85.08
13869;BME280;7004;48.206;16.402;2022-08-19T01:37:15;98966.91;;;21.73;84.23
13869;BME280;7004;48.206;16.402;2022-08-19T01:39:42;98972.47;;;21.71;84.34
13869;BME280;7004;48.206;16.402;2022-08-19T01:42:09;98973.88;;;21.52;84.97
13869;BME280;7004;48.206;16.402;2022-08-19T01:44:39;98966.84;;;21.51;85.83
13869;BME280;7004;48.206;16.402;2022-08-19T01:47:10;98970.53;;;21.65;85.18
13869;BME280;7004;48.206;16.402;2022-08-19T01:49:37;98976.72;;;21.36;86.37
13869;BME280;7004;48.206;16.402;2022-08-19T01:52:05;98974.41;;;21.18;88.23
13869;BME280;7004;48.206;16.402;2022-08-19T01:54:32;98978.44;;;21.52;86.46
13869;BME280;7004;48.206;16.402;2022-08-19T01:57:08;98974.75;;;21.00;89.21
13869;BME280;7004;48.206;16.402;2022-08-19T01:59:44;98973.50;;;20.88;90.55
13869;BME280;7004;48.206;16.402;2022-08-19T02:02:11;98978.56;;;21.21;89.36
13869;BME280;7004;48.206;16.402;2022-08-19T02:04:38;98995.31;;;21.46;87.58
13869;BME280;7004;48.206;16.402;2022-08-19T02:07:06;99001.00;;;21.28;88.15
13869;BME280;7004;48.206;16.402;2022-08-19T02:09:34;99012.66;;;21.43;87.50
13869;BME280;7004;48.206;16.402;2022-08-19T02:12:01;99013.13;;;21.24;87.85
13869;BME280;7004;48.206;16.402;2022-08-19T02:14:28;99003.75;;;21.05;89.04
13869;BME280;7004;48.206;16.402;2022-08-19T02:16:54;99011.72;;;21.13;88.70
13869;BME280;7004;48.206;16.402;2022-08-19T02:19:22;99001.94;;;21.20;88.52
13869;BME280;7004;48.206;16.402;2022-08-19T02:21:48;98997.09;;;21.15;88.29
13869;BME280;7004;48.206;16.402;2022-08-19T02:24:17;99006.91;;;21.46;86.76
13869;BME280;7004;48.206;16.402;2022-08-19T02:26:44;98997.63;;;21.11;88.36
13869;BME280;7004;48.206;16.402;2022-08-19T02:29:10;98988.13;;;21.23;88.08
13869;BME280;7004;48.206;16.402;2022-08-19T02:31:39;98988.81;;;21.02;88.93
13869;BME280;7004;48.206;16.402;2022-08-19T02:34:05;99000.59;;;21.39;85.47
13869;BME280;7004;48.206;16.402;2022-08-19T02:36:31;99001.31;;;21.48;85.28
13869;BME280;7004;48.206;16.402;2022-08-19T02:38:57;98993.84;;;21.35;85.99
13869;BME280;7004;48.206;16.402;2022-08-19T02:41:28;98981.91;;;21.23;86.59
13869;BME280;7004;48.206;16.402;2022-08-19T02:43:56;98986.06;;;21.10;87.13
13869;BME280;7004;48.206;16.402;2022-08-19T02:46:27;98988.22;;;21.30;85.11
13869;BME280;7004;48.206;16.402;2022-08-19T02:48:59;99007.06;;;21.45;83.56
13869;BME280;7004;48.206;16.402;2022-08-19T02:51:40;99013.22;;;21.53;82.12
13869;BME280;7004;48.206;16.402;2022-08-19T02:54:09;99025.84;;;21.30;83.47
13869;BME280;7004;48.206;16.402;2022-08-19T02:56:39;99021.47;;;21.29;83.52
13869;BME280;7004;48.206;16.402;2022-08-19T02:59:06;99013.13;;;21.62;81.78
13869;BME280;7004;48.206;16.402;2022-08-19T03:01:39;99016.81;;;21.75;81.28
13869;BME280;7004;48.206;16.402;2022-08-19T03:04:08;99012.69;;;21.35;83.26
13869;BME280;7004;48.206;16.402;2022-08-19T03:06:42;99012.66;;;21.43;82.99
13869;BME280;7004;48.206;16.402;2022-08-19T03:09:19;99010.72;;;21.29;83.91
13869;BME280;7004;48.206;16.402;2022-08-19T03:11:46;99003.06;;;21.55;83.07
13869;BME280;7004;48.206;16.402;2022-08-19T03:14:13;99012.69;;;21.35;84.27
13869;BME280;7004;48.206;16.402;2022-08-19T03:16:46;99015.94;;;21.30;85.16
13869;BME280;7004;48.206;16.402;2022-08-19T03:19:13;99025.63;;;21.16;86.49
13869;BME280;7004;48.206;16.402;2022-08-19T03:21:41;99025.56;;;21.25;85.75
13869;BME280;7004;48.206;16.402;2022-08-19T03:24:09;99022.59;;;21.34;85.50
13869;BME280;7004;48.206;16.402;2022-08-19T03:26:52;99025.47;;;21.18;87.06
13869;BME280;7004;48.206;16.402;2022-08-19T03:29:21;99023.59;;;21.19;86.55
13869;BME280;7004;48.206;16.402;2022-08-19T03:31:47;99026.81;;;21.14;87.11
13869;BME280;7004;48.206;16.402;2022-08-19T03:34:19;99030.94;;;21.25;86.75
13869;BME280;7004;48.206;16.402;2022-08-19T03:36:47;99049.59;;;21.03;87.70
13869;BME280;7004;48.206;16.402;2022-08-19T03:39:14;99050.38;;;21.27;86.78
13869;BME280;7004;48.206;16.402;2022-08-19T03:41:44;99054.41;;;21.31;86.18
13869;BME280;7004;48.206;16.402;2022-08-19T03:44:14;99057.16;;;21.23;86.33
13869;BME280;7004;48.206;16.402;2022-08-19T03:46:42;99063.81;;;21.27;86.19
13869;BME280;7004;48.206;16.402;2022-08-19T03:49:08;99068.00;;;21.29;85.89
13869;BME280;7004;48.206;16.402;2022-08-19T03:51:38;99074.81;;;21.02;87.04
13869;BME280;7004;48.206;16.402;2022-08-19T03:54:08;99074.00;;;21.16;86.46
13869;BME280;7004;48.206;16.402;2022-08-19T03:56:37;99072.84;;;21.34;85.63
13869;BME280;7004;48.206;16.402;2022-08-19T03:59:11;99079.97;;;21.27;86.02
13869;BME280;7004;48.206;16.402;2022-08-19T04:01:39;99073.91;;;21.10;87.28
13869;BME280;7004;48.206;16.402;2022-08-19T04:04:05;99067.09;;;21.22;86.57
13869;BME280;7004;48.206;16.402;2022-08-19T04:06:35;99075.03;;;21.15;86.69
13869;BME280;7004;48.206;16.402;2022-08-19T04:09:05;99081.75;;;21.34;85.84
13869;BME280;7004;48.206;16.402;2022-08-19T04:11:43;99080.69;;;21.21;86.78
13869;BME280;7004;48.206;16.402;2022-08-19T04:14:15;99081.50;;;20.83;89.01
13869;BME280;7004;48.206;16.402;2022-08-19T04:16:43;99073.47;;;20.75;90.57
13869;BME280;7004;48.206;16.402;2022-08-19T04:19:13;99084.13;;;21.14;88.04
13869;BME280;7004;48.206;16.402;2022-08-19T04:21:42;99082.94;;;21.32;86.64
13869;BME280;7004;48.206;16.402;2022-08-19T04:24:09;99087.69;;;21.07;87.81
13869;BME280;7004;48.206;16.402;2022-08-19T04:26:36;99087.25;;;21.41;86.26
13869;BME280;7004;48.206;16.402;2022-08-19T04:29:24;99091.66;;;21.72;84.39
13869;BME280;7004;48.206;16.402;2022-08-19T04:31:52;99097.13;;;21.64;84.92
13869;BME280;7004;48.206;16.402;2022-08-19T04:34:21;99085.28;;;21.88;83.77
13869;BME280;7004;48.206;16.402;2022-08-19T04:36:48;99083.69;;;21.93;83.51
13869;BME280;7004;48.206;16.402;2022-08-19T04:39:21;99088.03;;;21.94;83.67
13869;BME280;7004;48.206;16.402;2022-08-19T04:41:48;99091.13;;;22.21;82.11
13869;BME280;7004;48.206;16.402;2022-08-19T04:44:35;99087.19;;;22.75;79.39
13869;BME280;7004;48.206;16.402;2022-08-19T04:47:02;99090.56;;;22.98;78.23
13869;BME280;7004;48.206;16.402;2022-08-19T04:49:31;99088.47;;;22.57;79.33
13869;BME280;7004;48.206;16.402;2022-08-19T04:51:57;99092.25;;;22.63;78.94
13869;BME280;7004;48.206;16.402;2022-08-19T04:54:25;99099.28;;;22.64;79.56
13869;BME280;7004;48.206;16.402;2022-08-19T04:56:52;99103.56;;;22.22;81.42
13869;BME280;7004;48.206;16.402;2022-08-19T04:59:20;99095.81;;;22.49;81.35
13869;BME280;7004;48.206;16.402;2022-08-19T05:01:48;99096.53;;;22.57;81.27
13869;BME280;7004;48.206;16.402;2022-08-19T05:04:18;99090.94;;;22.59;82.03
13869;BME280;7004;48.206;16.402;2022-08-19T05:06:48;99099.97;;;22.51;82.09
13869;BME280;7004;48.206;16.402;2022-08-19T05:09:15;99096.97;;;22.61;82.18
13869;BME280;7004;48.206;16.402;2022-08-19T05:11:42;99105.19;;;22.53;82.33
13869;BME280;7004;48.206;16.402;2022-08-19T05:14:10;99115.16;;;22.74;80.63
13869;BME280;7004;48.206;16.402;2022-08-19T05:16:39;99104.75;;;23.07;79.29
13869;BME280;7004;48.206;16.402;2022-08-19T05:19:05;99107.38;;;22.64;81.49
13869;BME280;7004;48.206;16.402;2022-08-19T05:21:50;99112.47;;;22.95;77.41
13869;BME280;7004;48.206;16.402;2022-08-19T05:24:36;99131.75;;;23.14;77.40
13869;BME280;7004;48.206;16.402;2022-08-19T05:27:03;99132.09;;;23.04;76.13
13869;BME280;7004;48.206;16.402;2022-08-19T05:29:32;99134.47;;;23.35;74.85
13869;BME280;7004;48.206;16.402;2022-08-19T05:32:02;99131.47;;;23.51;74.27
13869;BME280;7004;48.206;16.402;2022-08-19T05:34:31;99148.22;;;23.47;74.33
13869;BME280;7004;48.206;16.402;2022-08-19T05:37:01;99154.03;;;23.44;73.84
13869;BME280;7004;48.206;16.402;2022-08-19T05:39:32;99147.56;;;23.17;74.69
13869;BME280;7004;48.206;16.402;2022-08-19T05:42:07;99155.81;;;23.37;74.02
13869;BME280;7004;48.206;16.402;2022-08-19T05:44:37;99161.91;;;23.67;72.80
13869;BME280;7004;48.206;16.402;2022-08-19T05:47:06;99172.84;;;23.59;73.05
13869;BME280;7004;48.206;16.402;2022-08-19T05:49:36;99184.22;;;23.61;72.85
13869;BME280;7004;48.206;16.402;2022-08-19T05:52:11;99197.75;;;23.39;74.23
13869;BME280;7004;48.206;16.402;2022-08-19T05:54:39;99206.56;;;23.48;73.61
13869;BME280;7004;48.206;16.402;2022-08-19T05:57:08;99196.03;;;23.53;73.42
13869;BME280;7004;48.206;16.402;2022-08-19T05:59:35;99202.69;;;23.57;73.13
13869;BME280;7004;48.206;16.402;2022-08-19T06:02:02;99201.72;;;23.65;72.71
13869;BME280;7004;48.206;16.402;2022-08-19T06:04:30;99209.53;;;23.74;72.22
13869;BME280;7004;48.206;16.402;2022-08-19T06:06:56;99219.28;;;23.32;73.70
13869;BME280;7004;48.206;16.402;2022-08-19T06:09:22;99220.59;;;23.65;72.56
13869;BME280;7004;48.206;16.402;2022-08-19T06:11:52;99211.56;;;23.51;73.05
13869;BME280;7004;48.206;16.402;2022-08-19T06:14:24;99218.44;;;23.75;71.57
13869;BME280;7004;48.206;16.402;2022-08-19T06:16:51;99223.44;;;23.57;72.93
13869;BME280;7004;48.206;16.402;2022-08-19T06:19:20;99231.00;;;23.68;72.28
13869;BME280;7004;48.206;16.402;2022-08-19T06:21:49;99230.72;;;23.77;71.64
13869;BME280;7004;48.206;16.402;2022-08-19T06:24:21;99221.81;;;23.84;71.18
13869;BME280;7004;48.206;16.402;2022-08-19T06:26:52;99212.91;;;23.83;70.61
13869;BME280;7004;48.206;16.402;2022-08-19T06:29:21;99212.41;;;24.01;70.99
13869;BME280;7004;48.206;16.402;2022-08-19T06:31:52;99205.00;;;24.10;70.00
13869;BME280;7004;48.206;16.402;2022-08-19T06:34:19;99195.06;;;24.10;70.32
13869;BME280;7004;48.206;16.402;2022-08-19T06:36:49;99204.72;;;23.98;71.58
13869;BME280;7004;48.206;16.402;2022-08-19T06:39:37;99206.34;;;24.27;69.85
13869;BME280;7004;48.206;16.402;2022-08-19T06:42:06;99202.03;;;24.68;67.51
13869;BME280;7004;48.206;16.402;2022-08-19T06:44:36;99205.94;;;24.30;68.51
13869;BME280;7004;48.206;16.402;2022-08-19T06:47:08;99216.59;;;24.38;68.62
13869;BME280;7004;48.206;16.402;2022-08-19T06:49:35;99207.69;;;24.73;67.47
13869;BME280;7004;48.206;16.402;2022-08-19T06:52:03;99207.81;;;24.58;67.42
13869;BME280;7004;48.206;16.402;2022-08-19T06:54:29;99212.38;;;24.57;66.86
13869;BME280;7004;48.206;16.402;2022-08-19T06:56:58;99205.47;;;24.48;67.95
13869;BME280;7004;48.206;16.402;2022-08-19T06:59:26;99208.28;;;24.68;66.96
13869;BME280;7004;48.206;16.402;2022-08-19T07:01:56;99193.06;;;24.60;67.21
13869;BME280;7004;48.206;16.402;2022-08-19T07:04:28;99186.28;;;24.78;66.46
13869;BME280;7004;48.206;16.402;2022-08-19T07:07:23;99190.41;;;24.67;66.77
13869;BME280;7004;48.206;16.402;2022-08-19T07:09:50;99196.13;;;24.99;66.38
13869;BME280;7004;48.206;16.402;2022-08-19T07:12:19;99210.13;;;25.16;65.24
13869;BME280;7004;48.206;16.402;2022-08-19T07:14:46;99207.88;;;25.19;64.63
13869;BME280;7004;48.206;16.402;2022-08-19T07:17:15;99197.72;;;25.75;62.81
13869;BME280;7004;48.206;16.402;2022-08-19T07:19:41;99192.72;;;25.45;63.36
13869;BME280;7004;48.206;16.402;2022-08-19T07:22:09;99183.09;;;25.16;64.32
13869;BME280;7004;48.206;16.402;2022-08-19T07:24:36;99177.19;;;24.99;63.95
13869;BME280;7004;48.206;16.402;2022-08-19T07:27:05;99175.41;;;25.39;63.57
13869;BME280;7004;48.206;16.402;2022-08-19T07:29:34;99174.78;;;25.17;63.64
13869;BME280;7004;48.206;16.402;2022-08-19T07:32:02;99165.16;;;25.08;63.51
13869;BME280;7004;48.206;16.402;2022-08-19T07:34:30;99165.44;;;25.46;62.96
13869;BME280;7004;48.206;16.402;2022-08-19T07:36:57;99160.44;;;25.70;61.62
13869;BME280;7004;48.206;16.402;2022-08-19T07:39:29;99165.88;;;25.43;62.14
13869;BME280;7004;48.206;16.402;2022-08-19T07:41:57;99165.25;;;25.95;60.10
13869;BME280;7004;48.206;16.402;2022-08-19T07:44:24;99167.09;;;26.14;58.91
13869;BME280;7004;48.206;16.402;2022-08-19T07:46:55;99147.66;;;26.37;57.77
13869;BME280;7004;48.206;16.402;2022-08-19T07:49:22;99129.06;;;26.92;56.74
13869;BME280;7004;48.206;16.402;2022-08-19T07:51:57;99125.53;;;27.23;56.20
13869;BME280;7004;48.206;16.402;2022-08-19T07:54:25;99114.38;;;27.07;55.59
13869;BME280;7004;48.206;16.402;2022-08-19T07:56:53;99125.53;;;26.92;54.66
13869;BME280;7004;48.206;16.402;2022-08-19T07:59:21;99130.72;;;27.32;53.41
13869;BME280;7004;48.206;16.402;2022-08-19T08:01:48;99132.25;;;28.15;51.94
13869;BME280;7004;48.206;16.402;2022-08-19T08:04:17;99134.53;;;27.74;51.40
13869;BME280;7004;48.206;16.402;2022-08-19T08:07:05;99124.38;;;27.88;52.08
13869;BME280;7004;48.206;16.402;2022-08-19T08:09:50;99131.66;;;28.98;49.66
13869;BME280;7004;48.206;16.402;2022-08-19T08:12:27;99146.91;;;28.69;50.13
13869;BME280;7004;48.206;16.402;2022-08-19T08:15:00;99151.09;;;29.44;47.87
13869;BME280;7004;48.206;16.402;2022-08-19T08:17:29;99139.44;;;28.94;48.87
13869;BME280;7004;48.206;16.402;2022-08-19T08:19:56;99143.59;;;28.97;49.04
13869;BME280;7004;48.206;16.402;2022-08-19T08:22:24;99145.72;;;29.13;48.32
13869;BME280;7004;48.206;16.402;2022-08-19T08:25:16;99158.75;;;29.89;46.55
13869;BME280;7004;48.206;16.402;2022-08-19T08:27:45;99162.53;;;29.22;47.38
13869;BME280;7004;48.206;16.402;2022-08-19T08:30:30;99166.44;;;28.96;47.34
13869;BME280;7004;48.206;16.402;2022-08-19T08:32:59;99168.38;;;29.49;45.75
13869;BME280;7004;48.206;16.402;2022-08-19T08:35:25;99178.03;;;28.73;47.59
13869;BME280;7004;48.206;16.402;2022-08-19T08:37:54;99171.94;;;28.89;47.90
13869;BME280;7004;48.206;16.402;2022-08-19T08:40:47;99178.97;;;30.16;45.41
13869;BME280;7004;48.206;16.402;2022-08-19T08:43:38;99185.66;;;28.46;46.79
13869;BME280;7004;48.206;16.402;2022-08-19T08:46:20;99190.50;;;29.95;44.47
13869;BME280;7004;48.206;16.402;2022-08-19T08:52:05;99191.44;;;30.12;45.82
13869;BME280;7004;48.206;16.402;2022-08-19T08:54:42;99195.34;;;30.52;44.48
13869;BME280;7004;48.206;16.402;2022-08-19T08:57:39;99203.13;;;29.77;45.94
13869;BME280;7004;48.206;16.402;2022-08-19T09:00:15;99207.41;;;30.09;45.39
13869;BME280;7004;48.206;16.402;2022-08-19T09:02:43;99197.38;;;28.95;48.11
13869;BME280;7004;48.206;16.402;2022-08-19T09:05:10;99196.16;;;28.61;48.29
13869;BME280;7004;48.206;16.402;2022-08-19T09:08:04;99188.50;;;29.60;46.33
13869;BME280;7004;48.206;16.402;2022-08-19T09:10:43;99183.28;;;29.89;45.12
13869;BME280;7004;48.206;16.402;2022-08-19T09:16:03;99170.91;;;30.45;43.78
13869;BME280;7004;48.206;16.402;2022-08-19T09:18:45;99172.41;;;29.58;45.30
13869;BME280;7004;48.206;16.402;2022-08-19T09:21:14;99159.78;;;30.23;44.32
13869;BME280;7004;48.206;16.402;2022-08-19T09:23:41;99149.03;;;30.04;44.41
13869;BME280;7004;48.206;16.402;2022-08-19T09:26:17;99151.59;;;29.52;45.00
13869;BME280;7004;48.206;16.402;2022-08-19T09:28:46;99148.44;;;30.02;44.08
13869;BME280;7004;48.206;16.402;2022-08-19T09:31:23;99150.78;;;30.22;43.44
13869;BME280;7004;48.206;16.402;2022-08-19T09:33:51;99150.88;;;29.45;44.79
13869;BME280;7004;48.206;16.402;2022-08-19T09:36:20;99129.66;;;30.82;42.29
13869;BME280;7004;48.206;16.402;2022-08-19T09:38:48;99120.97;;;31.42;41.21
13869;BME280;7004;48.206;16.402;2022-08-19T09:41:19;99111.56;;;31.72;41.19
13869;BME280;7004;48.206;16.402;2022-08-19T09:43:49;99119.28;;;31.41;41.79
13869;BME280;7004;48.206;16.402;2022-08-19T09:46:19;99131.06;;;31.42;41.59
13869;BME280;7004;48.206;16.402;2022-08-19T09:48:48;99132.91;;;31.75;40.07
13869;BME280;7004;48.206;16.402;2022-08-19T09:51:18;99131.16;;;31.35;41.21
13869;BME280;7004;48.206;16.402;2022-08-19T09:53:46;99130.19;;;32.53;39.25
13869;BME280;7004;48.206;16.402;2022-08-19T09:56:13;99133.44;;;31.72;39.80
13869;BME280;7004;48.206;16.402;2022-08-19T09:58:40;99140.06;;;31.76;39.28
13869;BME280;7004;48.206;16.402;2022-08-19T10:01:07;99131.00;;;32.48;38.14
13869;BME280;7004;48.206;16.402;2022-08-19T10:03:36;99135.22;;;30.87;40.11
13869;BME280;7004;48.206;16.402;2022-08-19T10:06:04;99131.78;;;31.71;39.61
13869;BME280;7004;48.206;16.402;2022-08-19T10:08:34;99123.44;;;31.15;40.15
13869;BME280;7004;48.206;16.402;2022-08-19T10:11:02;99128.00;;;31.09;41.21
13869;BME280;7004;48.206;16.402;2022-08-19T10:13:32;99126.72;;;31.29;40.58
13869;BME280;7004;48.206;16.402;2022-08-19T10:16:14;99132.84;;;30.79;40.29
13869;BME280;7004;48.206;16.402;2022-08-19T10:18:42;99137.13;;;30.86;40.67
13869;BME280;7004;48.206;16.402;2022-08-19T10:21:13;99138.28;;;30.62;41.94
13869;BME280;7004;48.206;16.402;2022-08-19T10:23:45;99123.63;;;31.25;39.31
13869;BME280;7004;48.206;16.402;2022-08-19T10:26:17;99129.94;;;31.60;40.20
13869;BME280;7004;48.206;16.402;2022-08-19T10:28:43;99141.88;;;30.39;41.83
13869;BME280;7004;48.206;16.402;2022-08-19T10:31:20;99134.66;;;30.73;40.07
13869;BME280;7004;48.206;16.402;2022-08-19T10:33:48;99155.44;;;29.87;42.64
13869;BME280;7004;48.206;16.402;2022-08-19T10:36:19;99158.38;;;29.85;43.46
13869;BME280;7004;48.206;16.402;2022-08-19T10:38:50;99177.44;;;29.85;41.77
13869;BME280;7004;48.206;16.402;2022-08-19T10:41:22;99186.59;;;29.37;43.09
13869;BME280;7004;48.206;16.402;2022-08-19T10:43:55;99191.56;;;29.52;43.62
13869;BME280;7004;48.206;16.402;2022-08-19T10:46:23;99194.09;;;29.23;43.58
13869;BME280;7004;48.206;16.402;2022-08-19T10:48:50;99178.69;;;29.47;44.35
13869;BME280;7004;48.206;16.402;2022-08-19T10:51:17;99162.97;;;29.73;44.13
13869;BME280;7004;48.206;16.402;2022-08-19T10:54:02;99161.25;;;29.36;45.51
13869;BME280;7004;48.206;16.402;2022-08-19T10:56:30;99150.81;;;29.33;46.91
13869;BME280;7004;48.206;16.402;2022-08-19T10:59:15;99157.09;;;29.34;45.08
13869;BME280;7004;48.206;16.402;2022-08-19T11:01:44;99165.69;;;28.89;46.00
13869;BME280;7004;48.206;16.402;2022-08-19T11:04:12;99188.50;;;28.88;47.71
13869;BME280;7004;48.206;16.402;2022-08-19T11:06:41;99213.38;;;28.55;50.13
13869;BME280;7004;48.206;16.402;2022-08-19T11:09:10;99202.63;;;27.73;62.07
13869;BME280;7004;48.206;16.402;2022-08-19T11:11:37;99176.94;;;26.73;69.40
13869;BME280;7004;48.206;16.402;2022-08-19T11:14:12;99150.59;;;26.29;75.69
13869;BME280;7004;48.206;16.402;2022-08-19T11:16:40;99164.81;;;26.11;75.25
13869;BME280;7004;48.206;16.402;2022-08-19T11:19:10;99172.94;;;25.91;71.96
13869;BME280;7004;48.206;16.402;2022-08-19T11:21:41;99166.41;;;26.25;68.75
13869;BME280;7004;48.206;16.402;2022-08-19T11:24:14;99160.25;;;25.38;83.62
13869;BME280;7004;48.206;16.402;2022-08-19T11:26:43;99155.47;;;25.87;74.97
13869;BME280;7004;48.206;16.402;2022-08-19T11:29:11;99152.53;;;26.02;71.83
13869;BME280;7004;48.206;16.402;2022-08-19T11:31:44;99157.03;;;26.34;67.72
13869;BME280;7004;48.206;16.402;2022-08-19T11:34:15;99145.88;;;27.08;65.29
13869;BME280;7004;48.206;16.402;2022-08-19T11:36:44;99136.38;;;27.55;62.33
13869;BME280;7004;48.206;16.402;2022-08-19T11:39:15;99134.06;;;28.02;59.22
13869;BME280;7004;48.206;16.402;2022-08-19T11:41:41;99121.63;;;28.31;56.55
13869;BME280;7004;48.206;16.402;2022-08-19T11:44:08;99124.88;;;28.59;53.52
13869;BME280;7004;48.206;16.402;2022-08-19T11:46:36;99120.81;;;28.31;51.90
13869;BME280;7004;48.206;16.402;2022-08-19T11:49:06;99120.69;;;28.38;52.54
13869;BME280;7004;48.206;16.402;2022-08-19T11:51:35;99132.81;;;28.23;49.88
13869;BME280;7004;48.206;16.402;2022-08-19T11:54:03;99118.16;;;29.22;46.43
13869;BME280;7004;48.206;16.402;2022-08-19T11:56:30;99110.50;;;30.01;45.01
13869;BME280;7004;48.206;16.402;2022-08-19T11:58:57;99105.16;;;30.18;44.05
13869;BME280;7004;48.206;16.402;2022-08-19T12:01:25;99113.13;;;30.08;44.41
13869;BME280;7004;48.206;16.402;2022-08-19T12:03:53;99107.59;;;30.43;43.63
13869;BME280;7004;48.206;16.402;2022-08-19T12:06:25;99098.81;;;30.53;43.75
13869;BME280;7004;48.206;16.402;2022-08-19T12:08:57;99108.72;;;30.30;44.08
13869;BME280;7004;48.206;16.402;2022-08-19T12:11:23;99117.38;;;29.56;44.15
13869;BME280;7004;48.206;16.402;2022-08-19T12:13:50;99118.03;;;29.16;44.42
13869;BME280;7004;48.206;16.402;2022-08-19T12:16:21;99116.59;;;29.14;44.44
13869;BME280;7004;48.206;16.402;2022-08-19T12:18:48;99111.88;;;28.61;45.89
13869;BME280;7004;48.206;16.402;2022-08-19T12:21:27;99100.81;;;28.74;46.42
13869;BME280;7004;48.206;16.402;2022-08-19T12:23:58;99107.53;;;29.02;45.71
13869;BME280;7004;48.206;16.402;2022-08-19T12:26:27;99122.94;;;29.50;47.15
13869;BME280;7004;48.206;16.402;2022-08-19T12:28:53;99124.72;;;30.38;45.57
13869;BME280;7004;48.206;16.402;2022-08-19T12:31:19;99121.06;;;31.19;44.25
13869;BME280;7004;48.206;16.402;2022-08-19T12:33:46;99125.84;;;30.54;44.49
13869;BME280;7004;48.206;16.402;2022-08-19T12:36:15;99131.34;;;30.19;44.47
13869;BME280;7004;48.206;16.402;2022-08-19T12:38:42;99139.97;;;29.45;45.97
13869;BME280;7004;48.206;16.402;2022-08-19T12:41:13;99147.13;;;29.16;46.55
13869;BME280;7004;48.206;16.402;2022-08-19T12:43:39;99150.84;;;28.73;47.27
13869;BME280;7004;48.206;16.402;2022-08-19T12:46:08;99153.56;;;28.73;47.96
13869;BME280;7004;48.206;16.402;2022-08-19T12:48:35;99161.34;;;28.51;47.83
13869;BME280;7004;48.206;16.402;2022-08-19T12:51:09;99163.53;;;28.42;48.62
13869;BME280;7004;48.206;16.402;2022-08-19T12:53:36;99176.97;;;28.56;49.24
13869;BME280;7004;48.206;16.402;2022-08-19T12:56:05;99182.72;;;28.47;49.96
13869;BME280;7004;48.206;16.402;2022-08-19T12:58:31;99184.94;;;28.32;50.47
13869;BME280;7004;48.206;16.402;2022-08-19T13:01:15;99164.44;;;28.36;50.24
13869;BME280;7004;48.206;16.402;2022-08-19T13:03:42;99147.72;;;28.32;49.48
13869;BME280;7004;48.206;16.402;2022-08-19T13:06:09;99152.47;;;28.44;48.47
13869;BME280;7004;48.206;16.402;2022-08-19T13:08:36;99146.38;;;28.42;49.05
13869;BME280;7004;48.206;16.402;2022-08-19T13:11:16;99128.34;;;28.47;48.87
13869;BME280;7004;48.206;16.402;2022-08-19T13:13:45;99135.00;;;28.33;49.14
13869;BME280;7004;48.206;16.402;2022-08-19T13:16:14;99121.00;;;28.29;49.18
13869;BME280;7004;48.206;16.402;2022-08-19T13:18:43;99114.09;;;28.15;47.27
13869;BME280;7004;48.206;16.402;2022-08-19T13:21:11;99108.88;;;28.32;46.81
13869;BME280;7004;48.206;16.402;2022-08-19T13:23:40;99107.91;;;28.08;47.25